Time;durP1;ratioP1;P1;durP2;ratioP2;P2;SDS_P1;SDS_P2;PMS_P1;PMS_P2;Temp;Humidity;BMP_temperature;BMP_pressure;BME280_temperature;BME280_humidity;BME280_pressure;Samples;Min_cycle;Max_cycle;Signal;HPM_P1;HPM_P2
2023/05/10 00:01:14;;;;;;;16.38;4.38;;;14.60;99.90;;;;;;5081015;28;20382;-72
2023/05/10 00:03:40;;;;;;;6.80;3.65;;;14.60;99.90;;;;;;5062179;28;20039;-73
2023/05/10 00:06:06;;;;;;;10.77;4.10;;;14.50;99.90;;;;;;5092878;28;20028;-73
2023/05/10 00:08:32;;;;;;;16.38;4.28;;;14.50;99.90;;;;;;5093495;28;20465;-73
2023/05/10 00:10:58;;;;;;;11.15;3.85;;;14.40;99.90;;;;;;5059026;28;20043;-73
2023/05/10 00:13:25;;;;;;;15.30;4.50;;;14.50;99.90;;;;;;5092180;28;20488;-73
2023/05/10 00:15:51;;;;;;;10.82;4.28;;;14.40;99.90;;;;;;5061708;28;20397;-72
2023/05/10 00:18:17;;;;;;;15.82;4.78;;;14.40;99.90;;;;;;5065622;28;20037;-73
2023/05/10 00:20:45;;;;;;;10.60;4.25;;;14.40;99.90;;;;;;5085442;28;20432;-73
2023/05/10 00:23:11;;;;;;;19.05;4.72;;;14.40;99.90;;;;;;5091798;28;20031;-73
2023/05/10 00:25:37;;;;;;;9.30;4.13;;;14.40;99.90;;;;;;5057909;28;20040;-73
2023/05/10 00:28:03;;;;;;;12.48;4.43;;;14.30;99.90;;;;;;5091994;28;20040;-73
2023/05/10 00:30:30;;;;;;;11.13;4.28;;;14.30;99.90;;;;;;5074693;28;20481;-73
2023/05/10 00:32:56;;;;;;;12.80;5.28;;;14.30;99.90;;;;;;5091510;28;20039;-73
2023/05/10 00:35:22;;;;;;;14.13;4.50;;;14.30;99.90;;;;;;5080358;28;20032;-73
2023/05/10 00:37:48;;;;;;;10.50;4.53;;;14.20;99.90;;;;;;5092265;28;20048;-73
2023/05/10 00:40:14;;;;;;;13.10;4.25;;;14.10;99.90;;;;;;5092567;28;20020;-73
2023/05/10 00:42:40;;;;;;;18.10;4.82;;;14.00;99.90;;;;;;5053873;28;20119;-73
2023/05/10 00:45:07;;;;;;;13.75;4.57;;;14.10;99.90;;;;;;5089174;28;20031;-72
2023/05/10 00:47:33;;;;;;;15.60;4.45;;;14.00;99.90;;;;;;5074047;28;20488;-72
2023/05/10 00:50:00;;;;;;;16.00;4.63;;;13.90;99.90;;;;;;5074107;28;20042;-73
2023/05/10 00:52:27;;;;;;;11.45;5.10;;;13.90;99.90;;;;;;5073660;28;20032;-73
2023/05/10 00:54:53;;;;;;;13.65;4.55;;;13.80;99.90;;;;;;5073968;28;20523;-72
2023/05/10 00:57:19;;;;;;;15.23;4.63;;;13.80;99.90;;;;;;5074464;28;20039;-73
2023/05/10 00:59:46;;;;;;;14.23;5.10;;;13.80;99.90;;;;;;5073648;28;20496;-73
2023/05/10 01:02:12;;;;;;;18.27;4.63;;;13.80;99.90;;;;;;5090144;28;20096;-73
2023/05/10 01:04:39;;;;;;;15.05;5.22;;;13.80;99.90;;;;;;5089608;28;20016;-73
2023/05/10 01:07:05;;;;;;;15.32;4.55;;;13.80;99.90;;;;;;5087359;28;20044;-73
2023/05/10 01:09:31;;;;;;;18.63;4.32;;;13.70;99.90;;;;;;5090554;28;20035;-72
2023/05/10 01:11:58;;;;;;;13.07;4.63;;;13.70;99.90;;;;;;5091307;28;20039;-72
2023/05/10 01:14:24;;;;;;;12.35;4.43;;;13.70;99.90;;;;;;5069916;28;20040;-73
2023/05/10 01:16:50;;;;;;;15.27;4.15;;;13.60;99.90;;;;;;5073297;28;20044;-73
2023/05/10 01:19:24;;;;;;;13.73;5.30;;;13.60;99.90;;;;;;5092476;28;20031;-73
2023/05/10 01:22:10;;;;;;;19.27;4.35;;;13.60;99.90;;;;;;5062493;28;20389;-73
2023/05/10 01:24:43;;;;;;;15.27;4.15;;;13.50;99.90;;;;;;5089079;28;20043;-73
2023/05/10 01:27:29;;;;;;;15.90;4.80;;;13.50;99.90;;;;;;5090591;28;20024;-73
2023/05/10 01:30:37;;;;;;;19.10;4.47;;;13.60;99.90;;;;;;5090052;28;20036;-73
2023/05/10 01:33:03;;;;;;;11.95;4.28;;;13.50;99.90;;;;;;4991359;28;20035;-72
2023/05/10 01:35:47;;;;;;;16.60;4.40;;;13.50;99.90;;;;;;4992997;28;20039;-73
2023/05/10 01:38:29;;;;;;;14.57;4.50;;;13.60;99.90;;;;;;4990405;28;20507;-73
2023/05/10 01:41:15;;;;;;;14.68;4.65;;;13.60;99.90;;;;;;4966545;28;20471;-73
2023/05/10 01:44:04;;;;;;;13.50;4.57;;;13.50;99.90;;;;;;4997974;28;20045;-73
2023/05/10 01:46:36;;;;;;;14.98;4.13;;;13.50;99.90;;;;;;4998419;28;20038;-73
2023/05/10 01:49:03;;;;;;;18.92;4.43;;;13.50;99.90;;;;;;4970474;28;20042;-73
2023/05/10 01:51:36;;;;;;;15.20;4.07;;;13.40;99.90;;;;;;4996673;28;20046;-73
2023/05/10 01:54:02;;;;;;;15.88;4.35;;;13.50;99.90;;;;;;4981599;28;20034;-72
2023/05/10 01:56:30;;;;;;;17.33;4.93;;;13.40;99.90;;;;;;5003342;28;20058;-73
2023/05/10 01:58:56;;;;;;;14.73;4.97;;;13.30;99.90;;;;;;4974301;28;20050;-73
2023/05/10 02:01:22;;;;;;;16.75;5.43;;;13.30;99.90;;;;;;4997834;28;20594;-73
2023/05/10 02:03:50;;;;;;;16.58;4.50;;;13.40;99.90;;;;;;5017531;28;20036;-73
2023/05/10 02:06:16;;;;;;;22.23;5.10;;;13.30;99.90;;;;;;5059696;28;20056;-73
2023/05/10 02:08:42;;;;;;;12.00;4.28;;;13.30;99.90;;;;;;5075260;28;20457;-73
2023/05/10 02:11:08;;;;;;;8.45;3.70;;;13.30;99.90;;;;;;5054880;28;20040;-73
2023/05/10 02:13:34;;;;;;;13.98;4.60;;;13.30;99.90;;;;;;5055687;28;20484;-73
2023/05/10 02:16:00;;;;;;;19.48;4.00;;;13.30;99.90;;;;;;5074641;28;20401;-73
2023/05/10 02:18:26;;;;;;;18.45;4.60;;;13.30;99.90;;;;;;5075543;28;20507;-73
2023/05/10 02:20:52;;;;;;;12.93;4.63;;;13.20;99.90;;;;;;5074484;28;20036;-73
2023/05/10 02:23:19;;;;;;;14.85;4.43;;;13.30;99.90;;;;;;5059459;28;20028;-73
2023/05/10 02:25:45;;;;;;;17.25;4.20;;;13.30;99.90;;;;;;5067437;28;20376;-73
2023/05/10 02:28:11;;;;;;;12.25;3.70;;;13.30;99.90;;;;;;5042852;28;20512;-73
2023/05/10 02:30:37;;;;;;;16.20;4.32;;;13.20;99.90;;;;;;5073367;28;20412;-73
2023/05/10 02:33:04;;;;;;;14.20;4.30;;;13.30;99.90;;;;;;5091970;28;20040;-73
2023/05/10 02:35:30;;;;;;;14.85;4.07;;;13.20;99.90;;;;;;5075341;28;20461;-73
2023/05/10 02:37:56;;;;;;;13.52;3.55;;;13.20;99.90;;;;;;5076610;28;20051;-73
2023/05/10 02:40:23;;;;;;;18.02;4.50;;;13.20;99.90;;;;;;5075219;28;20035;-73
2023/05/10 02:42:50;;;;;;;20.85;4.55;;;13.10;99.90;;;;;;5094189;28;20032;-73
2023/05/10 02:45:19;;;;;;;13.95;4.13;;;13.10;99.90;;;;;;5066240;28;20029;-73
2023/05/10 02:47:45;;;;;;;16.27;4.15;;;13.10;99.90;;;;;;5062181;28;20057;-73
2023/05/10 02:50:11;;;;;;;16.73;4.43;;;13.10;99.90;;;;;;5079935;28;20036;-73
2023/05/10 02:52:40;;;;;;;14.23;3.92;;;13.00;99.90;;;;;;5076304;28;20039;-73
2023/05/10 02:55:07;;;;;;;15.65;4.72;;;12.90;99.90;;;;;;5061183;28;20024;-72
2023/05/10 02:57:33;;;;;;;21.15;4.53;;;12.90;99.90;;;;;;5072080;28;20063;-73
2023/05/10 03:00:00;;;;;;;16.98;4.38;;;12.90;99.90;;;;;;5067824;28;20411;-73
2023/05/10 03:02:27;;;;;;;18.60;5.20;;;12.90;99.90;;;;;;5062069;28;20512;-73
2023/05/10 03:04:53;;;;;;;19.20;4.95;;;13.00;99.90;;;;;;5088902;28;20027;-73
2023/05/10 03:07:21;;;;;;;17.30;5.22;;;13.00;99.90;;;;;;5075903;28;20042;-73
2023/05/10 03:09:48;;;;;;;19.92;5.40;;;12.90;99.90;;;;;;5071410;28;20043;-73
2023/05/10 03:12:23;;;;;;;11.55;4.45;;;12.90;99.90;;;;;;5052580;28;20040;-73
2023/05/10 03:15:14;;;;;;;16.67;5.25;;;12.90;99.90;;;;;;5068150;28;20035;-73
2023/05/10 03:18:00;;;;;;;16.90;4.68;;;12.90;99.90;;;;;;5059842;28;20493;-73
2023/05/10 03:20:29;;;;;;;17.13;4.53;;;12.90;99.90;;;;;;5091455;28;20473;-72
2023/05/10 03:22:59;;;;;;;13.57;4.53;;;12.80;99.90;;;;;;5076819;28;20059;-72
2023/05/10 03:25:26;;;;;;;18.13;4.53;;;12.70;99.90;;;;;;5059401;28;20028;-73
2023/05/10 03:27:52;;;;;;;18.52;4.47;;;12.70;99.90;;;;;;5058848;28;20040;-73
2023/05/10 03:30:18;;;;;;;18.90;4.60;;;12.70;99.90;;;;;;5055290;28;20040;-73
2023/05/10 03:32:44;;;;;;;20.27;4.90;;;12.70;99.90;;;;;;5074678;28;20547;-73
2023/05/10 03:35:11;;;;;;;19.40;5.25;;;12.80;99.90;;;;;;5034523;28;20033;-72
2023/05/10 03:37:37;;;;;;;24.60;5.75;;;12.70;99.90;;;;;;5077183;28;20047;-72
2023/05/10 03:40:04;;;;;;;21.58;4.68;;;12.70;99.90;;;;;;5075879;28;20385;-72
2023/05/10 03:42:30;;;;;;;19.80;5.18;;;12.80;99.90;;;;;;5058545;28;20040;-73
2023/05/10 03:44:56;;;;;;;12.88;4.10;;;12.80;99.90;;;;;;5065645;28;20020;-73
2023/05/10 03:47:22;;;;;;;16.65;5.07;;;12.70;99.90;;;;;;5091606;28;20043;-73
2023/05/10 03:49:48;;;;;;;16.70;4.55;;;12.70;99.90;;;;;;5051049;28;20047;-73
2023/05/10 03:52:15;;;;;;;16.63;4.45;;;12.80;99.90;;;;;;5063547;28;20036;-73
2023/05/10 03:54:41;;;;;;;14.30;4.25;;;12.80;99.90;;;;;;5066428;28;20016;-73
2023/05/10 03:57:07;;;;;;;20.27;4.90;;;12.80;99.90;;;;;;5092928;28;20039;-73
2023/05/10 03:59:33;;;;;;;20.27;5.00;;;12.80;99.90;;;;;;5091205;28;20040;-73
2023/05/10 04:01:59;;;;;;;15.98;4.45;;;12.80;99.90;;;;;;5075270;28;20125;-73
2023/05/10 04:04:25;;;;;;;17.35;4.85;;;12.80;99.90;;;;;;5091061;28;20028;-73
2023/05/10 04:06:51;;;;;;;21.40;4.65;;;12.80;99.90;;;;;;5093182;28;20389;-73
2023/05/10 04:09:17;;;;;;;17.52;4.30;;;12.80;99.90;;;;;;5089828;28;20027;-73
2023/05/10 04:11:43;;;;;;;20.08;4.47;;;12.70;99.90;;;;;;5093219;28;20031;-73
2023/05/10 04:14:10;;;;;;;21.55;4.82;;;12.70;99.90;;;;;;5093268;28;20032;-73
2023/05/10 04:16:36;;;;;;;21.77;5.28;;;12.80;99.90;;;;;;5092868;28;20035;-73
2023/05/10 04:19:02;;;;;;;16.92;4.72;;;12.80;99.90;;;;;;5071297;28;20032;-72
2023/05/10 04:21:28;;;;;;;27.30;5.55;;;12.90;99.90;;;;;;5092648;28;20040;-73
2023/05/10 04:23:54;;;;;;;15.85;4.45;;;12.90;99.90;;;;;;5093379;28;20035;-73
2023/05/10 04:26:21;;;;;;;18.95;4.75;;;12.90;99.90;;;;;;5083248;28;20485;-73
2023/05/10 04:28:47;;;;;;;11.52;4.15;;;12.90;99.90;;;;;;5063453;28;20044;-73
2023/05/10 04:31:14;;;;;;;21.40;5.53;;;12.80;99.90;;;;;;5089260;28;20036;-73
2023/05/10 04:33:40;;;;;;;15.40;4.30;;;12.70;99.90;;;;;;5091363;28;20047;-73
2023/05/10 04:36:06;;;;;;;16.83;5.15;;;12.80;99.90;;;;;;5080477;28;20035;-73
2023/05/10 04:38:32;;;;;;;21.80;5.20;;;12.70;99.90;;;;;;5092353;28;20044;-73
2023/05/10 04:41:08;;;;;;;19.33;4.90;;;12.70;99.90;;;;;;5091678;28;20027;-73
2023/05/10 04:43:34;;;;;;;18.80;4.55;;;12.80;99.90;;;;;;5091113;28;20043;-73
2023/05/10 04:46:00;;;;;;;18.63;4.72;;;12.80;99.90;;;;;;5074030;28;20036;-73
2023/05/10 04:48:26;;;;;;;19.33;4.88;;;12.80;99.90;;;;;;5092168;28;20051;-73
2023/05/10 04:50:52;;;;;;;23.60;5.93;;;12.80;99.90;;;;;;5074094;28;20036;-73
2023/05/10 04:53:18;;;;;;;19.02;5.38;;;12.80;99.90;;;;;;5092831;28;20028;-73
2023/05/10 04:55:45;;;;;;;18.08;4.38;;;12.80;99.90;;;;;;5074347;28;20024;-73
2023/05/10 04:58:12;;;;;;;24.75;5.25;;;12.80;99.90;;;;;;5070107;28;20040;-73
2023/05/10 05:00:38;;;;;;;25.63;5.80;;;12.80;99.90;;;;;;5092185;28;20032;-73
2023/05/10 05:03:04;;;;;;;23.85;5.55;;;12.70;99.90;;;;;;5092199;28;20492;-73
2023/05/10 05:05:30;;;;;;;24.33;5.30;;;12.60;99.90;;;;;;5092384;28;20044;-73
2023/05/10 05:07:56;;;;;;;16.17;5.47;;;12.70;99.90;;;;;;5091979;28;20031;-73
2023/05/10 05:10:22;;;;;;;17.02;5.25;;;12.70;99.90;;;;;;5090941;28;20035;-73
2023/05/10 05:12:48;;;;;;;17.65;5.30;;;12.70;99.90;;;;;;5074535;28;20024;-73
2023/05/10 05:15:16;;;;;;;19.60;5.47;;;12.70;99.90;;;;;;5090734;28;20435;-73
2023/05/10 05:17:43;;;;;;;21.95;5.72;;;12.70;99.90;;;;;;5056698;28;20448;-73
2023/05/10 05:20:10;;;;;;;25.90;5.53;;;12.80;99.90;;;;;;5061215;28;20043;-73
2023/05/10 05:22:36;;;;;;;14.70;4.80;;;12.80;99.90;;;;;;5054252;28;20024;-73
2023/05/10 05:25:03;;;;;;;20.35;5.18;;;12.80;99.90;;;;;;5088077;28;20039;-73
2023/05/10 05:27:29;;;;;;;17.48;5.03;;;12.90;99.90;;;;;;5089949;28;20024;-73
2023/05/10 05:29:56;;;;;;;18.23;5.22;;;13.00;99.90;;;;;;5074484;28;20504;-73
2023/05/10 05:32:22;;;;;;;20.83;5.63;;;13.10;99.90;;;;;;5073712;28;20413;-73
2023/05/10 05:34:48;;;;;;;19.25;5.38;;;13.30;99.90;;;;;;5066081;28;20043;-73
2023/05/10 05:37:15;;;;;;;17.27;4.70;;;13.40;99.90;;;;;;5052947;28;20396;-73
2023/05/10 05:39:42;;;;;;;19.10;5.47;;;13.50;99.90;;;;;;5090153;28;20028;-73
2023/05/10 05:42:09;;;;;;;20.27;5.20;;;13.60;99.90;;;;;;5074083;28;20024;-73
2023/05/10 05:44:35;;;;;;;17.35;5.38;;;13.70;99.90;;;;;;5073861;28;20020;-73
2023/05/10 05:47:01;;;;;;;19.85;5.32;;;13.60;99.90;;;;;;5088967;28;20044;-73
2023/05/10 05:49:27;;;;;;;21.13;4.93;;;13.70;99.90;;;;;;5089684;28;20032;-73
2023/05/10 05:51:53;;;;;;;18.30;4.95;;;13.80;99.90;;;;;;5073583;28;20032;-73
2023/05/10 05:54:19;;;;;;;23.38;5.45;;;13.70;99.90;;;;;;5059957;28;20025;-73
2023/05/10 05:56:46;;;;;;;17.50;5.68;;;13.70;99.90;;;;;;5084299;28;20051;-73
2023/05/10 05:59:12;;;;;;;20.10;6.10;;;13.80;99.90;;;;;;5071853;28;20449;-74
2023/05/10 06:01:38;;;;;;;17.63;5.28;;;13.90;99.90;;;;;;5066112;28;20485;-73
2023/05/10 06:04:04;;;;;;;21.13;5.70;;;13.90;99.90;;;;;;5071599;28;20035;-73
2023/05/10 06:06:32;;;;;;;22.17;5.18;;;14.00;99.90;;;;;;5090827;28;20032;-73
2023/05/10 06:08:58;;;;;;;20.23;5.78;;;14.10;99.90;;;;;;5090522;28;20384;-73
2023/05/10 06:11:25;;;;;;;22.00;6.28;;;14.20;99.90;;;;;;5063521;28;20029;-73
2023/05/10 06:13:51;;;;;;;19.67;5.35;;;14.20;99.90;;;;;;5066486;28;20054;-74
2023/05/10 06:16:17;;;;;;;20.58;5.35;;;14.20;99.90;;;;;;5091056;28;20035;-73
2023/05/10 06:18:43;;;;;;;23.02;6.03;;;14.00;99.90;;;;;;5091134;28;20040;-73
2023/05/10 06:21:09;;;;;;;24.85;5.80;;;13.90;99.90;;;;;;5091213;28;20028;-74
2023/05/10 06:23:35;;;;;;;29.15;6.10;;;13.90;99.90;;;;;;5091527;28;20035;-73
2023/05/10 06:26:02;;;;;;;23.15;6.05;;;14.00;99.90;;;;;;5090802;28;20035;-73
2023/05/10 06:28:28;;;;;;;18.98;5.43;;;14.00;99.90;;;;;;5094160;28;20028;-73
2023/05/10 06:30:54;;;;;;;23.10;5.90;;;14.00;99.90;;;;;;5093204;28;20503;-73
2023/05/10 06:33:20;;;;;;;20.92;5.50;;;14.00;99.90;;;;;;5084934;28;20043;-73
2023/05/10 06:35:46;;;;;;;14.55;5.60;;;13.90;99.90;;;;;;5091982;28;20028;-73
2023/05/10 06:38:12;;;;;;;18.15;5.15;;;13.80;99.90;;;;;;5076183;28;20048;-73
2023/05/10 06:40:42;;;;;;;17.15;5.32;;;13.80;99.90;;;;;;5085114;28;20456;-73
2023/05/10 06:43:08;;;;;;;22.45;5.53;;;13.80;99.90;;;;;;5074984;28;20365;-73
2023/05/10 06:45:34;;;;;;;16.90;5.22;;;13.80;99.90;;;;;;5088867;27;20035;-73
2023/05/10 06:48:00;;;;;;;19.45;5.68;;;13.80;99.90;;;;;;5088738;28;20091;-74
2023/05/10 06:50:26;;;;;;;25.05;5.72;;;13.80;99.90;;;;;;5092456;28;20032;-73
2023/05/10 06:52:53;;;;;;;24.20;6.32;;;13.80;99.90;;;;;;5093890;28;20043;-73
2023/05/10 06:55:19;;;;;;;23.77;5.82;;;13.70;99.90;;;;;;5084707;28;20465;-74
2023/05/10 06:57:45;;;;;;;21.90;5.78;;;13.90;99.90;;;;;;5094081;28;20044;-73
2023/05/10 07:00:11;;;;;;;16.75;5.35;;;14.00;99.90;;;;;;5078077;28;20063;-73
2023/05/10 07:02:37;;;;;;;19.92;5.35;;;14.10;99.90;;;;;;5074655;28;20044;-73
2023/05/10 07:05:04;;;;;;;15.43;5.30;;;14.20;99.90;;;;;;5074685;28;20033;-73
2023/05/10 07:07:30;;;;;;;18.88;5.82;;;14.20;99.90;;;;;;5091774;28;20059;-73
2023/05/10 07:09:57;;;;;;;22.25;6.38;;;14.20;99.90;;;;;;5091898;28;20040;-73
2023/05/10 07:12:24;;;;;;;16.38;5.90;;;14.20;99.90;;;;;;5093495;28;20483;-74
2023/05/10 07:14:50;;;;;;;20.60;5.82;;;14.20;99.90;;;;;;5059633;28;20044;-73
2023/05/10 07:17:16;;;;;;;17.63;6.10;;;14.30;99.90;;;;;;5064689;28;20482;-73
2023/05/10 07:19:43;;;;;;;18.75;6.30;;;14.60;99.90;;;;;;5079575;28;20032;-73
2023/05/10 07:22:09;;;;;;;21.77;7.13;;;14.90;99.90;;;;;;5075018;28;20031;-74
2023/05/10 07:24:35;;;;;;;14.90;5.55;;;15.30;99.90;;;;;;5088181;28;20028;-73
2023/05/10 07:27:01;;;;;;;19.48;5.72;;;15.70;99.90;;;;;;5085191;28;20035;-73
2023/05/10 07:29:28;;;;;;;19.58;6.20;;;16.00;99.90;;;;;;5082025;28;20047;-73
2023/05/10 07:31:54;;;;;;;20.45;6.53;;;16.30;99.90;;;;;;5067304;28;20028;-74
2023/05/10 07:34:20;;;;;;;18.67;6.20;;;16.50;99.90;;;;;;5062840;28;20043;-74
2023/05/10 07:36:46;;;;;;;25.75;7.15;;;16.50;99.90;;;;;;5087528;28;20035;-74
2023/05/10 07:39:12;;;;;;;17.63;5.88;;;16.70;99.90;;;;;;5090527;28;20047;-74
2023/05/10 07:41:38;;;;;;;19.52;6.13;;;16.70;99.90;;;;;;5065730;28;20033;-74
2023/05/10 07:44:05;;;;;;;13.55;5.20;;;16.90;99.90;;;;;;5061589;28;20032;-74
2023/05/10 07:46:31;;;;;;;19.23;6.45;;;17.00;99.90;;;;;;5067953;28;20036;-73
2023/05/10 07:48:57;;;;;;;14.02;6.22;;;17.10;99.90;;;;;;5090500;28;20039;-74
2023/05/10 07:51:23;;;;;;;15.52;6.05;;;17.20;99.90;;;;;;5091273;28;20032;-74
2023/05/10 07:53:50;;;;;;;18.13;5.50;;;17.30;99.90;;;;;;5069495;28;20397;-74
2023/05/10 07:56:26;;;;;;;14.82;6.28;;;17.30;99.90;;;;;;5066922;28;20035;-73
2023/05/10 07:58:54;;;;;;;13.75;5.88;;;17.50;99.90;;;;;;5089084;28;20059;-74
2023/05/10 08:01:20;;;;;;;15.38;5.90;;;17.60;99.90;;;;;;5068681;28;20032;-74
2023/05/10 08:03:46;;;;;;;12.93;5.45;;;17.60;99.90;;;;;;5061497;28;20041;-74
2023/05/10 08:06:12;;;;;;;13.18;5.80;;;17.70;99.90;;;;;;5089085;28;20024;-74
2023/05/10 08:08:38;;;;;;;18.92;5.70;;;17.80;99.90;;;;;;5089493;28;20043;-74
2023/05/10 08:11:05;;;;;;;16.08;6.00;;;18.00;99.90;;;;;;5089607;28;20028;-74
2023/05/10 08:13:31;;;;;;;14.20;5.72;;;18.00;99.90;;;;;;5088594;28;20044;-74
2023/05/10 08:15:57;;;;;;;17.58;5.43;;;18.10;99.90;;;;;;5087359;28;20024;-74
2023/05/10 08:18:23;;;;;;;18.42;6.18;;;18.10;99.90;;;;;;5067371;28;20480;-74
2023/05/10 08:20:49;;;;;;;19.33;5.85;;;18.00;99.90;;;;;;5065382;28;20035;-74
2023/05/10 08:23:15;;;;;;;15.30;5.63;;;17.90;99.90;;;;;;5091021;28;20035;-74
2023/05/10 08:25:41;;;;;;;13.13;6.03;;;17.80;99.90;;;;;;5091260;28;20035;-73
2023/05/10 08:28:07;;;;;;;14.50;5.18;;;17.70;99.90;;;;;;5068390;28;20036;-74
2023/05/10 08:30:33;;;;;;;18.70;6.45;;;17.50;99.90;;;;;;5069642;28;20040;-74
2023/05/10 08:33:00;;;;;;;16.45;6.90;;;17.30;99.90;;;;;;5089661;28;20449;-74
2023/05/10 08:35:26;;;;;;;17.48;6.35;;;17.20;99.90;;;;;;5063207;28;20032;-74
2023/05/10 08:37:52;;;;;;;13.32;5.72;;;17.10;99.90;;;;;;5069021;28;20489;-74
2023/05/10 08:40:19;;;;;;;19.77;6.65;;;17.00;99.90;;;;;;5060026;28;20041;-73
2023/05/10 08:42:50;;;;;;;13.98;6.10;;;17.00;99.90;;;;;;5084493;28;20028;-74
2023/05/10 08:45:16;;;;;;;17.85;6.43;;;17.10;99.90;;;;;;5069194;28;20013;-74
2023/05/10 08:47:42;;;;;;;18.10;6.47;;;17.20;99.90;;;;;;5073651;28;20495;-74
2023/05/10 08:50:09;;;;;;;15.10;5.70;;;17.30;99.90;;;;;;5088635;28;20028;-74
2023/05/10 08:52:36;;;;;;;16.60;6.45;;;17.60;99.90;;;;;;5056963;28;20047;-74
2023/05/10 08:55:03;;;;;;;14.32;5.80;;;17.80;99.90;;;;;;5063325;28;20453;-74
2023/05/10 08:57:29;;;;;;;11.82;5.53;;;17.80;99.90;;;;;;5069701;28;20393;-74
2023/05/10 08:59:55;;;;;;;13.52;6.03;;;17.70;99.90;;;;;;5071006;28;20051;-74
2023/05/10 09:02:21;;;;;;;13.18;6.15;;;17.70;99.90;;;;;;5088636;28;20039;-74
2023/05/10 09:04:48;;;;;;;12.38;5.90;;;17.60;99.90;;;;;;5050385;28;20386;-74
2023/05/10 09:07:14;;;;;;;10.98;5.32;;;17.50;99.90;;;;;;5065875;28;20043;-74
2023/05/10 09:09:40;;;;;;;13.07;5.20;;;17.50;99.90;;;;;;5048722;28;20048;-74
2023/05/10 09:12:07;;;;;;;16.58;5.85;;;17.30;99.90;;;;;;5067513;28;20028;-74
2023/05/10 09:14:33;;;;;;;13.65;5.30;;;17.30;99.90;;;;;;5071659;28;20032;-74
2023/05/10 09:17:00;;;;;;;14.43;5.20;;;17.40;99.90;;;;;;5068255;28;20036;-73
2023/05/10 09:19:26;;;;;;;15.23;6.53;;;17.50;99.90;;;;;;5058345;28;20048;-74
2023/05/10 09:21:52;;;;;;;12.68;5.95;;;17.40;99.90;;;;;;5084709;28;20028;-74
2023/05/10 09:24:18;;;;;;;13.15;5.97;;;17.30;99.90;;;;;;5089865;28;20043;-73
2023/05/10 09:26:51;;;;;;;13.32;5.63;;;17.40;99.90;;;;;;5069457;28;20032;-74
2023/05/10 09:29:17;;;;;;;13.48;5.13;;;17.40;99.90;;;;;;5066608;28;20067;-74
2023/05/10 09:31:56;;;;;;;16.15;5.28;;;17.50;99.90;;;;;;5048784;28;20024;-74
2023/05/10 09:34:31;;;;;;;13.55;5.93;;;17.50;99.90;;;;;;5053076;28;20037;-74
2023/05/10 09:37:01;;;;;;;10.00;5.20;;;17.60;99.90;;;;;;5059166;28;20044;-74
2023/05/10 09:39:34;;;;;;;10.43;5.72;;;17.70;99.90;;;;;;5072746;28;20044;-74
2023/05/10 09:42:08;;;;;;;11.75;5.13;;;17.90;99.90;;;;;;5084745;28;20028;-74
2023/05/10 09:44:34;;;;;;;13.60;6.60;;;18.00;99.90;;;;;;5084387;28;20120;-74
2023/05/10 09:47:01;;;;;;;12.18;5.60;;;18.20;99.90;;;;;;5089141;28;20032;-74
2023/05/10 09:49:27;;;;;;;10.30;5.50;;;18.30;99.90;;;;;;5063086;28;20032;-74
2023/05/10 09:52:04;;;;;;;11.35;5.40;;;18.40;99.90;;;;;;5088035;28;20024;-73
2023/05/10 09:54:30;;;;;;;11.93;5.80;;;18.40;99.90;;;;;;5086099;28;20031;-73
2023/05/10 09:56:56;;;;;;;16.15;5.45;;;18.50;99.90;;;;;;5062601;28;20031;-74
2023/05/10 09:59:23;;;;;;;12.23;6.00;;;18.60;99.90;;;;;;5065741;28;20493;-74
2023/05/10 10:01:53;;;;;;;9.02;5.00;;;18.70;99.90;;;;;;5062272;28;20898;-74
2023/05/10 10:04:19;;;;;;;10.25;5.10;;;18.70;99.90;;;;;;5068580;28;20024;-74
2023/05/10 10:06:45;;;;;;;10.07;5.30;;;18.80;99.90;;;;;;5089675;28;20039;-74
2023/05/10 10:09:12;;;;;;;12.43;5.28;;;18.80;99.90;;;;;;5072232;28;20392;-73
2023/05/10 10:11:38;;;;;;;9.50;5.43;;;18.70;99.90;;;;;;5075076;28;20047;-74
2023/05/10 10:14:05;;;;;;;10.25;5.78;;;18.60;99.90;;;;;;5074070;28;20472;-74
2023/05/10 10:16:31;;;;;;;14.82;5.95;;;18.40;99.90;;;;;;5064215;28;20050;-73
2023/05/10 10:18:58;;;;;;;12.85;6.95;;;18.30;99.90;;;;;;5072519;28;20046;-73
2023/05/10 10:21:24;;;;;;;14.10;8.02;;;18.10;99.90;;;;;;5073944;28;20020;-74
2023/05/10 10:23:51;;;;;;;13.35;7.43;;;18.00;99.90;;;;;;5090266;28;20028;-74
2023/05/10 10:26:17;;;;;;;14.07;6.47;;;17.90;99.90;;;;;;5066400;28;20047;-74
2023/05/10 10:28:50;;;;;;;9.02;5.97;;;17.80;99.90;;;;;;5051030;28;20028;-73
2023/05/10 10:31:24;;;;;;;11.65;6.60;;;17.90;99.90;;;;;;5089415;28;20031;-74
2023/05/10 10:34:06;;;;;;;11.15;6.88;;;17.90;99.90;;;;;;5068391;28;20029;-73
2023/05/10 10:36:46;;;;;;;16.35;6.25;;;17.90;99.90;;;;;;5070128;28;20036;-74
2023/05/10 10:39:12;;;;;;;12.55;6.38;;;18.00;99.90;;;;;;5090527;28;20039;-74
2023/05/10 10:41:55;;;;;;;13.68;6.18;;;18.10;99.90;;;;;;5071482;28;20039;-74
2023/05/10 10:44:30;;;;;;;11.32;5.63;;;18.10;99.90;;;;;;5066047;28;20024;-74
2023/05/10 10:47:13;;;;;;;13.65;5.97;;;18.00;99.90;;;;;;5087175;28;20039;-71
2023/05/10 10:49:39;;;;;;;10.88;5.57;;;18.00;99.90;;;;;;5091867;28;20035;-71
2023/05/10 10:52:27;;;;;;;13.23;6.10;;;17.90;99.90;;;;;;5090417;28;20028;-71
2023/05/10 10:55:02;;;;;;;11.75;6.32;;;17.80;99.90;;;;;;5092034;28;20032;-74
2023/05/10 10:57:31;;;;;;;11.70;6.07;;;17.80;99.90;;;;;;5091186;28;20035;-75
2023/05/10 11:00:22;;;;;;;13.00;7.10;;;17.90;99.90;;;;;;5070325;28;20052;-76
2023/05/10 11:02:52;;;;;;;9.52;5.43;;;18.20;99.90;;;;;;5072005;28;20047;-75
2023/05/10 11:05:37;;;;;;;8.70;5.40;;;18.30;99.90;;;;;;5073437;28;20043;-75
2023/05/10 11:08:18;;;;;;;8.80;5.00;;;18.40;99.90;;;;;;5090871;28;20027;-75
2023/05/10 11:11:00;;;;;;;11.23;5.45;;;18.50;99.90;;;;;;5059334;28;20033;-74
2023/05/10 11:13:34;;;;;;;10.90;5.13;;;18.50;99.90;;;;;;5071597;28;20032;-74
2023/05/10 11:16:17;;;;;;;10.05;5.22;;;18.40;99.90;;;;;;5082574;28;20044;-75
2023/05/10 11:18:58;;;;;;;8.25;4.93;;;18.20;99.90;;;;;;5089561;28;20052;-75
2023/05/10 11:21:25;;;;;;;7.43;4.40;;;18.20;99.90;;;;;;5090033;28;20381;-75
2023/05/10 11:23:58;;;;;;;8.57;3.85;;;18.30;99.90;;;;;;5066610;28;20027;-75
2023/05/10 11:26:25;;;;;;;9.00;4.97;;;18.30;99.90;;;;;;5073527;28;20024;-75
2023/05/10 11:28:55;;;;;;;6.72;4.40;;;18.40;99.90;;;;;;5077665;28;20484;-75
2023/05/10 11:31:21;;;;;;;6.00;4.43;;;18.70;99.90;;;;;;5089562;28;20043;-75
2023/05/10 11:33:54;;;;;;;7.57;4.60;;;18.80;99.90;;;;;;5073698;28;20388;-75
2023/05/10 11:36:25;;;;;;;5.63;4.00;;;18.90;99.90;;;;;;5046706;28;20623;-75
2023/05/10 11:38:51;;;;;;;6.20;3.92;;;19.10;99.90;;;;;;5068653;28;20622;-75
2023/05/10 11:41:18;;;;;;;6.70;4.05;;;19.10;99.90;;;;;;5059760;28;20053;-76
2023/05/10 11:43:46;;;;;;;7.50;4.15;;;19.10;99.90;;;;;;5074651;28;20043;-75
2023/05/10 11:46:13;;;;;;;6.75;4.60;;;19.20;99.90;;;;;;5071651;28;20039;-75
2023/05/10 11:48:39;;;;;;;7.43;4.63;;;19.50;99.90;;;;;;5075299;28;20024;-75
2023/05/10 11:51:07;;;;;;;7.45;4.35;;;19.50;99.90;;;;;;5089012;28;20039;-75
2023/05/10 11:53:33;;;;;;;5.70;5.05;;;19.50;99.90;;;;;;5072810;28;20028;-75
2023/05/10 11:56:12;;;;;;;6.53;5.00;;;19.70;99.90;;;;;;5072389;28;20039;-75
2023/05/10 11:58:38;;;;;;;4.90;4.45;;;19.90;99.90;;;;;;5073906;28;20044;-75
2023/05/10 12:01:05;;;;;;;5.32;4.75;;;20.10;99.90;;;;;;5059562;28;20408;-75
2023/05/10 12:03:31;;;;;;;5.22;4.57;;;20.30;99.90;;;;;;5071121;28;20050;-75
2023/05/10 12:05:58;;;;;;;7.72;5.22;;;20.40;99.90;;;;;;5043527;28;20036;-75
2023/05/10 12:08:25;;;;;;;6.22;5.20;;;20.60;99.90;;;;;;5068946;28;20032;-75
2023/05/10 12:10:53;;;;;;;6.00;5.40;;;20.80;99.90;;;;;;5062694;28;20040;-75
2023/05/10 12:13:20;;;;;;;9.15;5.82;;;21.00;99.90;;;;;;5050587;28;20037;-75
2023/05/10 12:15:46;;;;;;;6.90;5.00;;;21.00;99.90;;;;;;5059647;28;20031;-75
2023/05/10 12:18:14;;;;;;;7.07;5.93;;;21.00;99.90;;;;;;5073158;28;20024;-75
2023/05/10 12:20:40;;;;;;;5.95;5.10;;;21.00;99.90;;;;;;5041644;28;20028;-75
2023/05/10 12:23:08;;;;;;;6.72;5.78;;;20.80;99.90;;;;;;5065685;28;20029;-75
2023/05/10 12:25:36;;;;;;;7.10;5.97;;;20.70;99.90;;;;;;5067372;28;20099;-75
2023/05/10 12:28:04;;;;;;;6.07;4.90;;;20.50;99.90;;;;;;5054534;28;20028;-75
2023/05/10 12:30:31;;;;;;;8.98;5.22;;;20.40;99.90;;;;;;5051210;28;20036;-75
2023/05/10 12:33:10;;;;;;;5.47;4.13;;;20.40;99.90;;;;;;5071137;28;20028;-75
2023/05/10 12:35:47;;;;;;;7.07;5.63;;;20.40;99.90;;;;;;5066913;28;20027;-76
2023/05/10 12:38:40;;;;;;;5.95;5.40;;;20.50;99.90;;;;;;5067240;28;20028;-75
2023/05/10 12:41:07;;;;;;;8.10;4.85;;;20.60;99.90;;;;;;5062248;28;20047;-75
2023/05/10 12:43:34;;;;;;;8.27;5.65;;;20.60;99.90;;;;;;5068341;28;20477;-75